sensor_id;sensor_type;location;lat;lon;timestamp;pressure;altitude;pressure_sealevel;temperature;humidity
34237;BME280;20501;45.956;13.632;2023-10-19T00:01:14;100018.50;;;12.00;100.00
34237;BME280;20501;45.956;13.632;2023-10-19T00:03:41;100016.69;;;12.09;100.00
34237;BME280;20501;45.956;13.632;2023-10-19T00:06:06;100010.69;;;11.97;100.00
34237;BME280;20501;45.956;13.632;2023-10-19T00:08:32;100017.97;;;11.97;100.00
34237;BME280;20501;45.956;13.632;2023-10-19T00:11:07;100019.75;;;11.80;100.00
34237;BME280;20501;45.956;13.632;2023-10-19T00:13:46;100012.88;;;11.93;100.00
34237;BME280;20501;45.956;13.632;2023-10-19T00:16:15;100013.44;;;12.05;100.00
34237;BME280;20501;45.956;13.632;2023-10-19T00:18:47;100009.91;;;12.13;100.00
34237;BME280;20501;45.956;13.632;2023-10-19T00:21:14;100012.44;;;12.06;100.00
34237;BME280;20501;45.956;13.632;2023-10-19T00:23:52;100001.47;;;12.08;100.00
34237;BME280;20501;45.956;13.632;2023-10-19T00:26:22;100004.16;;;12.08;100.00
34237;BME280;20501;45.956;13.632;2023-10-19T00:28:51;100004.00;;;12.10;100.00
34237;BME280;20501;45.956;13.632;2023-10-19T00:31:26;99996.91;;;12.17;100.00
34237;BME280;20501;45.956;13.632;2023-10-19T00:33:59;99988.44;;;12.20;100.00
34237;BME280;20501;45.956;13.632;2023-10-19T00:36:26;99987.78;;;12.26;100.00
34237;BME280;20501;45.956;13.632;2023-10-19T00:38:52;99978.63;;;12.27;100.00
34237;BME280;20501;45.956;13.632;2023-10-19T00:41:25;99982.91;;;12.30;100.00
34237;BME280;20501;45.956;13.632;2023-10-19T00:44:00;99979.13;;;12.22;100.00
34237;BME280;20501;45.956;13.632;2023-10-19T00:46:49;99965.75;;;12.13;100.00
34237;BME280;20501;45.956;13.632;2023-10-19T00:49:33;99963.38;;;12.01;100.00
34237;BME280;20501;45.956;13.632;2023-10-19T00:51:59;99946.94;;;12.03;100.00
34237;BME280;20501;45.956;13.632;2023-10-19T00:54:34;99947.22;;;11.91;100.00
34237;BME280;20501;45.956;13.632;2023-10-19T00:57:03;99936.38;;;11.83;100.00
34237;BME280;20501;45.956;13.632;2023-10-19T00:59:39;99931.28;;;11.88;100.00
34237;BME280;20501;45.956;13.632;2023-10-19T01:02:14;99915.59;;;11.92;100.00
34237;BME280;20501;45.956;13.632;2023-10-19T01:04:46;99922.34;;;11.96;100.00
34237;BME280;20501;45.956;13.632;2023-10-19T01:07:17;99927.31;;;12.01;100.00
34237;BME280;20501;45.956;13.632;2023-10-19T01:10:03;99917.81;;;11.97;100.00
34237;BME280;20501;45.956;13.632;2023-10-19T01:12:31;99912.75;;;12.02;100.00
34237;BME280;20501;45.956;13.632;2023-10-19T01:15:19;99906.72;;;12.16;100.00
34237;BME280;20501;45.956;13.632;2023-10-19T01:17:57;99906.53;;;12.18;100.00
34237;BME280;20501;45.956;13.632;2023-10-19T01:20:24;99906.03;;;12.22;100.00
34237;BME280;20501;45.956;13.632;2023-10-19T01:25:59;99908.22;;;12.19;100.00
34237;BME280;20501;45.956;13.632;2023-10-19T01:28:33;99901.47;;;12.15;100.00
34237;BME280;20501;45.956;13.632;2023-10-19T01:31:21;99892.47;;;12.22;100.00
34237;BME280;20501;45.956;13.632;2023-10-19T01:33:53;99898.75;;;12.15;100.00
34237;BME280;20501;45.956;13.632;2023-10-19T01:36:25;99885.38;;;12.13;100.00
34237;BME280;20501;45.956;13.632;2023-10-19T01:38:52;99888.75;;;12.07;100.00
34237;BME280;20501;45.956;13.632;2023-10-19T01:41:19;99885.88;;;12.08;100.00
34237;BME280;20501;45.956;13.632;2023-10-19T01:43:50;99887.56;;;12.01;100.00
34237;BME280;20501;45.956;13.632;2023-10-19T01:46:19;99886.88;;;12.07;100.00
34237;BME280;20501;45.956;13.632;2023-10-19T01:48:50;99885.03;;;12.08;100.00
34237;BME280;20501;45.956;13.632;2023-10-19T01:51:20;99871.31;;;12.10;100.00
34237;BME280;20501;45.956;13.632;2023-10-19T01:53:46;99866.25;;;12.06;100.00
34237;BME280;20501;45.956;13.632;2023-10-19T01:56:13;99863.19;;;12.01;100.00
34237;BME280;20501;45.956;13.632;2023-10-19T01:58:40;99866.38;;;11.97;100.00
34237;BME280;20501;45.956;13.632;2023-10-19T02:01:07;99866.03;;;11.91;100.00
34237;BME280;20501;45.956;13.632;2023-10-19T02:03:54;99866.38;;;11.97;100.00
34237;BME280;20501;45.956;13.632;2023-10-19T02:06:23;99863.31;;;11.91;100.00
34237;BME280;20501;45.956;13.632;2023-10-19T02:09:12;99864.50;;;11.97;100.00
34237;BME280;20501;45.956;13.632;2023-10-19T02:11:40;99858.25;;;11.97;100.00
34237;BME280;20501;45.956;13.632;2023-10-19T02:14:11;99851.97;;;11.88;100.00
34237;BME280;20501;45.956;13.632;2023-10-19T02:16:43;99847.06;;;11.75;100.00
34237;BME280;20501;45.956;13.632;2023-10-19T02:19:10;99848.41;;;11.79;100.00
34237;BME280;20501;45.956;13.632;2023-10-19T02:21:35;99843.66;;;11.73;100.00
34237;BME280;20501;45.956;13.632;2023-10-19T02:24:08;99834.69;;;11.72;100.00
34237;BME280;20501;45.956;13.632;2023-10-19T02:26:34;99830.31;;;11.80;100.00
34237;BME280;20501;45.956;13.632;2023-10-19T02:29:00;99829.50;;;11.87;100.00
34237;BME280;20501;45.956;13.632;2023-10-19T02:31:29;99825.75;;;11.88;100.00
34237;BME280;20501;45.956;13.632;2023-10-19T02:33:54;99822.91;;;11.90;100.00
34237;BME280;20501;45.956;13.632;2023-10-19T02:36:27;99820.19;;;11.90;100.00
34237;BME280;20501;45.956;13.632;2023-10-19T02:38:56;99825.41;;;11.83;100.00
34237;BME280;20501;45.956;13.632;2023-10-19T02:41:28;99819.00;;;11.84;100.00
34237;BME280;20501;45.956;13.632;2023-10-19T02:43:53;99828.63;;;11.79;100.00
34237;BME280;20501;45.956;13.632;2023-10-19T02:46:57;99821.00;;;11.66;100.00
34237;BME280;20501;45.956;13.632;2023-10-19T02:49:30;99822.84;;;11.73;100.00
34237;BME280;20501;45.956;13.632;2023-10-19T02:51:56;99813.22;;;11.71;100.00
34237;BME280;20501;45.956;13.632;2023-10-19T02:54:28;99811.19;;;11.65;100.00
34237;BME280;20501;45.956;13.632;2023-10-19T02:56:57;99805.09;;;11.71;100.00
34237;BME280;20501;45.956;13.632;2023-10-19T02:59:25;99800.88;;;11.76;100.00
34237;BME280;20501;45.956;13.632;2023-10-19T03:01:56;99798.53;;;11.82;100.00
34237;BME280;20501;45.956;13.632;2023-10-19T03:04:37;99800.56;;;11.88;100.00
34237;BME280;20501;45.956;13.632;2023-10-19T03:07:04;99793.63;;;11.93;100.00
34237;BME280;20501;45.956;13.632;2023-10-19T03:09:30;99795.81;;;11.90;100.00
34237;BME280;20501;45.956;13.632;2023-10-19T03:11:57;99795.78;;;11.73;100.00
34237;BME280;20501;45.956;13.632;2023-10-19T03:14:29;99794.63;;;11.76;100.00
34237;BME280;20501;45.956;13.632;2023-10-19T03:16:54;99787.53;;;11.75;100.00
34237;BME280;20501;45.956;13.632;2023-10-19T03:19:21;99785.16;;;11.80;100.00
34237;BME280;20501;45.956;13.632;2023-10-19T03:21:46;99779.91;;;11.70;100.00
34237;BME280;20501;45.956;13.632;2023-10-19T03:24:16;99780.56;;;11.64;100.00
34237;BME280;20501;45.956;13.632;2023-10-19T03:27:05;99770.25;;;11.68;100.00
34237;BME280;20501;45.956;13.632;2023-10-19T03:29:50;99772.63;;;11.63;100.00
34237;BME280;20501;45.956;13.632;2023-10-19T03:32:25;99764.84;;;11.68;100.00
34237;BME280;20501;45.956;13.632;2023-10-19T03:34:57;99752.34;;;11.83;100.00
34237;BME280;20501;45.956;13.632;2023-10-19T03:37:26;99749.81;;;11.82;100.00
34237;BME280;20501;45.956;13.632;2023-10-19T03:39:54;99752.84;;;11.87;100.00
34237;BME280;20501;45.956;13.632;2023-10-19T03:42:24;99752.34;;;11.91;100.00
34237;BME280;20501;45.956;13.632;2023-10-19T03:44:57;99749.13;;;11.96;100.00
34237;BME280;20501;45.956;13.632;2023-10-19T03:47:22;99742.22;;;11.85;100.00
34237;BME280;20501;45.956;13.632;2023-10-19T03:50:09;99739.69;;;11.92;100.00
34237;BME280;20501;45.956;13.632;2023-10-19T03:52:39;99740.50;;;11.84;100.00
34237;BME280;20501;45.956;13.632;2023-10-19T03:55:06;99738.13;;;11.81;100.00
34237;BME280;20501;45.956;13.632;2023-10-19T03:57:40;99729.34;;;11.79;100.00
34237;BME280;20501;45.956;13.632;2023-10-19T04:00:12;99722.59;;;11.83;100.00
34237;BME280;20501;45.956;13.632;2023-10-19T04:02:44;99720.53;;;11.93;100.00
34237;BME280;20501;45.956;13.632;2023-10-19T04:05:09;99713.63;;;11.91;100.00
34237;BME280;20501;45.956;13.632;2023-10-19T04:07:40;99716.81;;;11.78;100.00
34237;BME280;20501;45.956;13.632;2023-10-19T04:10:07;99712.44;;;11.69;100.00
34237;BME280;20501;45.956;13.632;2023-10-19T04:12:34;99700.25;;;11.81;100.00
34237;BME280;20501;45.956;13.632;2023-10-19T04:15:07;99704.31;;;11.85;100.00
34237;BME280;20501;45.956;13.632;2023-10-19T04:17:42;99697.53;;;11.89;100.00
34237;BME280;20501;45.956;13.632;2023-10-19T04:20:09;99687.38;;;11.91;100.00
34237;BME280;20501;45.956;13.632;2023-10-19T04:22:48;99679.78;;;11.95;100.00
34237;BME280;20501;45.956;13.632;2023-10-19T04:25:14;99675.88;;;11.89;100.00
34237;BME280;20501;45.956;13.632;2023-10-19T04:27:44;99675.56;;;11.92;100.00
34237;BME280;20501;45.956;13.632;2023-10-19T04:30:12;99668.78;;;11.97;100.00
34237;BME280;20501;45.956;13.632;2023-10-19T04:32:47;99673.53;;;12.03;100.00
34237;BME280;20501;45.956;13.632;2023-10-19T04:35:13;99665.75;;;11.91;100.00
34237;BME280;20501;45.956;13.632;2023-10-19T04:37:40;99657.94;;;11.88;100.00
34237;BME280;20501;45.956;13.632;2023-10-19T04:40:11;99645.78;;;11.92;100.00
34237;BME280;20501;45.956;13.632;2023-10-19T04:42:37;99647.47;;;11.77;100.00
34237;BME280;20501;45.956;13.632;2023-10-19T04:45:03;99642.41;;;11.99;100.00
34237;BME280;20501;45.956;13.632;2023-10-19T04:47:30;99645.78;;;12.01;100.00
34237;BME280;20501;45.956;13.632;2023-10-19T04:49:56;99640.38;;;12.01;100.00
34237;BME280;20501;45.956;13.632;2023-10-19T04:52:21;99643.06;;;12.17;100.00
34237;BME280;20501;45.956;13.632;2023-10-19T04:54:46;99638.44;;;12.26;100.00
34237;BME280;20501;45.956;13.632;2023-10-19T04:57:12;99632.91;;;12.11;100.00
34237;BME280;20501;45.956;13.632;2023-10-19T04:59:37;99634.97;;;12.01;100.00
34237;BME280;20501;45.956;13.632;2023-10-19T05:02:03;99637.16;;;12.14;100.00
34237;BME280;20501;45.956;13.632;2023-10-19T05:04:30;99634.63;;;12.04;100.00
34237;BME280;20501;45.956;13.632;2023-10-19T05:06:56;99639.69;;;12.15;100.00
34237;BME280;20501;45.956;13.632;2023-10-19T05:09:21;99636.09;;;12.23;100.00
34237;BME280;20501;45.956;13.632;2023-10-19T05:11:47;99634.56;;;12.29;100.00
34237;BME280;20501;45.956;13.632;2023-10-19T05:14:13;99630.50;;;12.25;100.00
34237;BME280;20501;45.956;13.632;2023-10-19T05:16:42;99638.97;;;12.21;100.00
34237;BME280;20501;45.956;13.632;2023-10-19T05:19:07;99632.31;;;12.41;100.00
34237;BME280;20501;45.956;13.632;2023-10-19T05:21:33;99626.28;;;12.22;100.00
34237;BME280;20501;45.956;13.632;2023-10-19T05:23:59;99631.88;;;12.12;100.00
34237;BME280;20501;45.956;13.632;2023-10-19T05:26:27;99626.84;;;12.09;100.00
34237;BME280;20501;45.956;13.632;2023-10-19T05:28:53;99620.38;;;12.10;100.00
34237;BME280;20501;45.956;13.632;2023-10-19T05:31:19;99621.75;;;12.06;100.00
34237;BME280;20501;45.956;13.632;2023-10-19T05:33:45;99623.97;;;12.02;100.00
34237;BME280;20501;45.956;13.632;2023-10-19T05:36:13;99617.69;;;12.10;100.00
34237;BME280;20501;45.956;13.632;2023-10-19T05:38:39;99627.97;;;12.23;100.00
34237;BME280;20501;45.956;13.632;2023-10-19T05:41:05;99625.94;;;12.25;100.00
34237;BME280;20501;45.956;13.632;2023-10-19T05:43:30;99622.38;;;12.25;100.00
34237;BME280;20501;45.956;13.632;2023-10-19T05:45:56;99629.34;;;12.19;100.00
34237;BME280;20501;45.956;13.632;2023-10-19T05:48:22;99624.59;;;12.21;100.00
34237;BME280;20501;45.956;13.632;2023-10-19T05:50:49;99627.47;;;12.28;100.00
34237;BME280;20501;45.956;13.632;2023-10-19T05:53:15;99637.28;;;12.29;100.00
34237;BME280;20501;45.956;13.632;2023-10-19T05:55:44;99631.28;;;12.42;100.00
34237;BME280;20501;45.956;13.632;2023-10-19T05:58:09;99630.41;;;12.49;100.00
34237;BME280;20501;45.956;13.632;2023-10-19T06:00:35;99629.78;;;12.39;100.00
34237;BME280;20501;45.956;13.632;2023-10-19T06:03:00;99631.31;;;12.33;100.00
34237;BME280;20501;45.956;13.632;2023-10-19T06:05:26;99622.22;;;12.18;100.00
34237;BME280;20501;45.956;13.632;2023-10-19T06:07:51;99633.75;;;12.20;100.00
34237;BME280;20501;45.956;13.632;2023-10-19T06:10:19;99628.34;;;12.12;100.00
34237;BME280;20501;45.956;13.632;2023-10-19T06:12:47;99627.78;;;12.25;100.00
34237;BME280;20501;45.956;13.632;2023-10-19T06:15:14;99618.31;;;12.20;100.00
34237;BME280;20501;45.956;13.632;2023-10-19T06:17:41;99614.91;;;12.35;100.00
34237;BME280;20501;45.956;13.632;2023-10-19T06:20:08;99615.75;;;12.35;100.00
34237;BME280;20501;45.956;13.632;2023-10-19T06:22:36;99619.16;;;12.29;100.00
34237;BME280;20501;45.956;13.632;2023-10-19T06:25:03;99611.13;;;12.44;100.00
34237;BME280;20501;45.956;13.632;2023-10-19T06:27:31;99616.41;;;12.37;100.00
34237;BME280;20501;45.956;13.632;2023-10-19T06:29:57;99606.09;;;12.33;100.00
34237;BME280;20501;45.956;13.632;2023-10-19T06:32:22;99606.72;;;12.43;100.00
34237;BME280;20501;45.956;13.632;2023-10-19T06:34:48;99599.59;;;12.50;100.00
34237;BME280;20501;45.956;13.632;2023-10-19T06:37:13;99602.84;;;12.46;100.00
34237;BME280;20501;45.956;13.632;2023-10-19T06:39:39;99608.91;;;12.48;100.00
34237;BME280;20501;45.956;13.632;2023-10-19T06:42:08;99602.78;;;12.54;100.00
34237;BME280;20501;45.956;13.632;2023-10-19T06:44:40;99609.44;;;12.43;100.00
34237;BME280;20501;45.956;13.632;2023-10-19T06:47:07;99608.47;;;12.36;100.00
34237;BME280;20501;45.956;13.632;2023-10-19T06:49:32;99608.13;;;12.39;100.00
34237;BME280;20501;45.956;13.632;2023-10-19T06:51:59;99607.88;;;12.57;100.00
34237;BME280;20501;45.956;13.632;2023-10-19T06:54:25;99599.81;;;12.41;100.00
34237;BME280;20501;45.956;13.632;2023-10-19T06:56:53;99610.81;;;12.39;100.00
34237;BME280;20501;45.956;13.632;2023-10-19T06:59:18;99609.44;;;12.43;100.00
34237;BME280;20501;45.956;13.632;2023-10-19T07:01:44;99599.13;;;12.47;100.00
34237;BME280;20501;45.956;13.632;2023-10-19T07:04:09;99602.50;;;12.41;100.00
34237;BME280;20501;45.956;13.632;2023-10-19T07:06:35;99597.09;;;12.41;100.00
34237;BME280;20501;45.956;13.632;2023-10-19T07:09:00;99603.34;;;12.49;100.00
34237;BME280;20501;45.956;13.632;2023-10-19T07:11:29;99599.94;;;12.47;100.00
34237;BME280;20501;45.956;13.632;2023-10-19T07:13:54;99602.50;;;12.41;100.00
34237;BME280;20501;45.956;13.632;2023-10-19T07:16:19;99597.38;;;12.54;100.00
34237;BME280;20501;45.956;13.632;2023-10-19T07:18:45;99602.84;;;12.46;100.00
34237;BME280;20501;45.956;13.632;2023-10-19T07:21:11;99594.72;;;12.46;100.00
34237;BME280;20501;45.956;13.632;2023-10-19T07:23:37;99586.94;;;12.43;100.00
34237;BME280;20501;45.956;13.632;2023-10-19T07:26:03;99585.72;;;12.45;100.00
34237;BME280;20501;45.956;13.632;2023-10-19T07:28:29;99596.56;;;12.45;100.00
34237;BME280;20501;45.956;13.632;2023-10-19T07:30:56;99579.53;;;12.68;100.00
34237;BME280;20501;45.956;13.632;2023-10-19T07:33:22;99576.50;;;12.63;100.00
34237;BME280;20501;45.956;13.632;2023-10-19T07:35:49;99571.59;;;12.58;100.00
34237;BME280;20501;45.956;13.632;2023-10-19T07:38:21;99571.59;;;12.58;100.00
34237;BME280;20501;45.956;13.632;2023-10-19T07:40:47;99575.19;;;12.59;100.00
34237;BME280;20501;45.956;13.632;2023-10-19T07:43:13;99573.28;;;12.59;100.00
34237;BME280;20501;45.956;13.632;2023-10-19T07:45:38;99576.28;;;12.73;100.00
34237;BME280;20501;45.956;13.632;2023-10-19T07:48:04;99583.81;;;12.85;100.00
34237;BME280;20501;45.956;13.632;2023-10-19T07:50:37;99583.81;;;12.85;100.00
34237;BME280;20501;45.956;13.632;2023-10-19T07:53:03;99577.41;;;12.78;100.00
34237;BME280;20501;45.956;13.632;2023-10-19T07:55:29;99581.47;;;12.82;100.00
34237;BME280;20501;45.956;13.632;2023-10-19T07:58:00;99580.38;;;12.92;100.00
34237;BME280;20501;45.956;13.632;2023-10-19T08:00:26;99580.19;;;12.93;100.00
34237;BME280;20501;45.956;13.632;2023-10-19T08:02:52;99578.16;;;12.95;100.00
34237;BME280;20501;45.956;13.632;2023-10-19T08:05:19;99574.22;;;12.98;100.00
34237;BME280;20501;45.956;13.632;2023-10-19T08:07:46;99569.63;;;12.83;100.00
34237;BME280;20501;45.956;13.632;2023-10-19T08:10:16;99570.78;;;12.81;100.00
34237;BME280;20501;45.956;13.632;2023-10-19T08:12:42;99568.59;;;12.84;100.00
34237;BME280;20501;45.956;13.632;2023-10-19T08:15:12;99562.31;;;12.84;100.00
34237;BME280;20501;45.956;13.632;2023-10-19T08:17:39;99564.13;;;12.92;100.00
34237;BME280;20501;45.956;13.632;2023-10-19T08:20:10;99557.50;;;12.94;100.00
34237;BME280;20501;45.956;13.632;2023-10-19T08:22:44;99555.72;;;13.01;100.00
34237;BME280;20501;45.956;13.632;2023-10-19T08:25:12;99553.41;;;12.98;100.00
34237;BME280;20501;45.956;13.632;2023-10-19T08:27:43;99545.63;;;12.95;100.00
34237;BME280;20501;45.956;13.632;2023-10-19T08:30:14;99543.47;;;12.91;100.00
34237;BME280;20501;45.956;13.632;2023-10-19T08:32:43;99542.38;;;13.00;100.00
34237;BME280;20501;45.956;13.632;2023-10-19T08:35:09;99545.28;;;12.98;100.00
34237;BME280;20501;45.956;13.632;2023-10-19T08:37:38;99533.53;;;13.06;100.00
34237;BME280;20501;45.956;13.632;2023-10-19T08:40:05;99540.56;;;12.92;100.00
34237;BME280;20501;45.956;13.632;2023-10-19T08:42:31;99540.00;;;12.97;100.00
34237;BME280;20501;45.956;13.632;2023-10-19T08:44:56;99533.34;;;13.08;100.00
34237;BME280;20501;45.956;13.632;2023-10-19T08:47:25;99528.47;;;13.03;100.00
34237;BME280;20501;45.956;13.632;2023-10-19T08:49:52;99525.31;;;13.14;100.00
34237;BME280;20501;45.956;13.632;2023-10-19T08:52:20;99521.03;;;13.20;100.00
34237;BME280;20501;45.956;13.632;2023-10-19T08:54:47;99517.19;;;13.14;100.00
34237;BME280;20501;45.956;13.632;2023-10-19T08:57:13;99523.91;;;13.19;100.00
34237;BME280;20501;45.956;13.632;2023-10-19T08:59:39;99513.06;;;13.19;100.00
34237;BME280;20501;45.956;13.632;2023-10-19T09:02:05;99521.81;;;13.06;100.00
34237;BME280;20501;45.956;13.632;2023-10-19T09:04:40;99539.53;;;12.93;100.00
34237;BME280;20501;45.956;13.632;2023-10-19T09:07:07;99544.13;;;12.93;100.00
34237;BME280;20501;45.956;13.632;2023-10-19T09:09:35;99543.28;;;13.15;100.00
34237;BME280;20501;45.956;13.632;2023-10-19T09:12:06;99540.72;;;13.14;100.00
34237;BME280;20501;45.956;13.632;2023-10-19T09:14:34;99530.63;;;13.08;100.00
34237;BME280;20501;45.956;13.632;2023-10-19T09:17:01;99542.03;;;13.03;100.00
34237;BME280;20501;45.956;13.632;2023-10-19T09:19:41;99539.22;;;13.11;100.00
34237;BME280;20501;45.956;13.632;2023-10-19T09:22:08;99519.06;;;13.29;100.00
34237;BME280;20501;45.956;13.632;2023-10-19T09:24:42;99527.03;;;13.30;100.00
34237;BME280;20501;45.956;13.632;2023-10-19T09:27:08;99527.03;;;13.30;100.00
34237;BME280;20501;45.956;13.632;2023-10-19T09:29:33;99519.19;;;13.36;100.00
34237;BME280;20501;45.956;13.632;2023-10-19T09:31:59;99524.31;;;13.30;100.00
34237;BME280;20501;45.956;13.632;2023-10-19T09:34:29;99526.94;;;13.24;100.00
34237;BME280;20501;45.956;13.632;2023-10-19T09:36:59;99523.06;;;13.41;100.00
34237;BME280;20501;45.956;13.632;2023-10-19T09:39:32;99520.41;;;13.33;100.00
34237;BME280;20501;45.956;13.632;2023-10-19T09:42:10;99522.09;;;13.34;100.00
34237;BME280;20501;45.956;13.632;2023-10-19T09:44:42;99525.47;;;13.36;100.00
34237;BME280;20501;45.956;13.632;2023-10-19T09:47:29;99511.13;;;13.27;100.00
34237;BME280;20501;45.956;13.632;2023-10-19T09:49:56;99508.41;;;13.27;100.00
34237;BME280;20501;45.956;13.632;2023-10-19T09:52:22;99507.94;;;13.24;100.00
34237;BME280;20501;45.956;13.632;2023-10-19T09:54:53;99516.78;;;13.18;100.00
34237;BME280;20501;45.956;13.632;2023-10-19T09:57:27;99511.25;;;13.34;100.00
34237;BME280;20501;45.956;13.632;2023-10-19T10:00:02;99495.16;;;13.32;100.00
34237;BME280;20501;45.956;13.632;2023-10-19T10:02:39;99483.25;;;13.34;100.00
34237;BME280;20501;45.956;13.632;2023-10-19T10:10:52;99469.75;;;13.49;100.00
34237;BME280;20501;45.956;13.632;2023-10-19T10:15:53;99482.84;;;13.45;100.00
34237;BME280;20501;45.956;13.632;2023-10-19T10:18:26;99473.88;;;13.44;100.00
34237;BME280;20501;45.956;13.632;2023-10-19T10:23:48;99456.84;;;13.66;100.00
34237;BME280;20501;45.956;13.632;2023-10-19T10:26:16;99450.84;;;13.70;100.00
34237;BME280;20501;45.956;13.632;2023-10-19T10:28:47;99445.50;;;13.62;100.00
34237;BME280;20501;45.956;13.632;2023-10-19T10:31:18;99433.72;;;13.55;100.00
34237;BME280;20501;45.956;13.632;2023-10-19T10:33:46;99431.84;;;13.40;100.00
34237;BME280;20501;45.956;13.632;2023-10-19T10:36:13;99436.09;;;13.43;100.00
34237;BME280;20501;45.956;13.632;2023-10-19T10:38:39;99426.91;;;13.59;100.00
34237;BME280;20501;45.956;13.632;2023-10-19T10:41:04;99424.38;;;13.57;100.00
34237;BME280;20501;45.956;13.632;2023-10-19T10:43:30;99418.00;;;13.65;100.00
34237;BME280;20501;45.956;13.632;2023-10-19T10:46:06;99415.66;;;13.62;100.00
34237;BME280;20501;45.956;13.632;2023-10-19T10:48:33;99418.88;;;13.66;100.00
34237;BME280;20501;45.956;13.632;2023-10-19T10:50:58;99412.31;;;13.60;100.00
34237;BME280;20501;45.956;13.632;2023-10-19T10:53:24;99411.91;;;13.63;100.00
34237;BME280;20501;45.956;13.632;2023-10-19T10:55:52;99407.06;;;13.58;100.00
34237;BME280;20501;45.956;13.632;2023-10-19T10:58:18;99409.50;;;13.53;100.00
34237;BME280;20501;45.956;13.632;2023-10-19T11:00:45;99407.16;;;13.50;100.00
34237;BME280;20501;45.956;13.632;2023-10-19T11:03:12;99400.25;;;13.48;100.00
34237;BME280;20501;45.956;13.632;2023-10-19T11:05:39;99388.75;;;13.45;100.00
34237;BME280;20501;45.956;13.632;2023-10-19T11:10:40;99390.13;;;13.41;100.00
34237;BME280;20501;45.956;13.632;2023-10-19T11:13:09;99391.34;;;13.54;100.00
34237;BME280;20501;45.956;13.632;2023-10-19T11:15:35;99381.06;;;13.49;100.00
34237;BME280;20501;45.956;13.632;2023-10-19T11:18:05;99390.31;;;13.55;100.00
34237;BME280;20501;45.956;13.632;2023-10-19T11:20:34;99382.25;;;13.61;100.00
34237;BME280;20501;45.956;13.632;2023-10-19T11:23:00;99392.19;;;13.69;100.00
34237;BME280;20501;45.956;13.632;2023-10-19T11:25:30;99387.00;;;13.74;100.00
34237;BME280;20501;45.956;13.632;2023-10-19T11:28:00;99377.84;;;13.75;100.00
34237;BME280;20501;45.956;13.632;2023-10-19T11:30:28;99378.03;;;13.74;100.00
34237;BME280;20501;45.956;13.632;2023-10-19T11:32:54;99378.41;;;13.71;100.00
34237;BME280;20501;45.956;13.632;2023-10-19T11:35:25;99365.69;;;13.71;100.00
34237;BME280;20501;45.956;13.632;2023-10-19T11:37:52;99371.75;;;13.73;100.00
34237;BME280;20501;45.956;13.632;2023-10-19T11:40:22;99370.06;;;13.72;100.00
34237;BME280;20501;45.956;13.632;2023-10-19T11:42:51;99362.88;;;13.80;100.00
34237;BME280;20501;45.956;13.632;2023-10-19T11:45:18;99366.13;;;13.90;100.00
34237;BME280;20501;45.956;13.632;2023-10-19T11:47:44;99361.34;;;13.92;100.00
34237;BME280;20501;45.956;13.632;2023-10-19T11:50:13;99378.38;;;13.86;100.00
34237;BME280;20501;45.956;13.632;2023-10-19T11:52:43;99365.84;;;13.85;100.00
34237;BME280;20501;45.956;13.632;2023-10-19T11:55:11;99377.16;;;13.88;100.00
34237;BME280;20501;45.956;13.632;2023-10-19T11:57:39;99365.25;;;13.89;100.00
34237;BME280;20501;45.956;13.632;2023-10-19T12:00:06;99368.03;;;13.96;100.00
34237;BME280;20501;45.956;13.632;2023-10-19T12:02:37;99374.06;;;13.91;100.00
34237;BME280;20501;45.956;13.632;2023-10-19T12:05:07;99368.53;;;13.85;100.00
34237;BME280;20501;45.956;13.632;2023-10-19T12:07:39;99366.50;;;13.87;100.00
34237;BME280;20501;45.956;13.632;2023-10-19T12:10:06;99372.66;;;13.96;100.00
34237;BME280;20501;45.956;13.632;2023-10-19T12:12:33;99372.72;;;14.02;100.00
34237;BME280;20501;45.956;13.632;2023-10-19T12:14:59;99366.44;;;14.02;100.00
34237;BME280;20501;45.956;13.632;2023-10-19T12:17:24;99362.31;;;14.06;100.00
34237;BME280;20501;45.956;13.632;2023-10-19T12:19:52;99360.34;;;14.00;100.00
34237;BME280;20501;45.956;13.632;2023-10-19T12:22:18;99361.66;;;14.04;100.00
34237;BME280;20501;45.956;13.632;2023-10-19T12:24:43;99360.19;;;14.01;100.00
34237;BME280;20501;45.956;13.632;2023-10-19T12:27:09;99363.66;;;13.95;100.00
34237;BME280;20501;45.956;13.632;2023-10-19T12:29:35;99372.06;;;14.00;100.00
34237;BME280;20501;45.956;13.632;2023-10-19T12:32:00;99359.16;;;14.02;100.00
34237;BME280;20501;45.956;13.632;2023-10-19T12:34:25;99359.72;;;13.98;100.00
34237;BME280;20501;45.956;13.632;2023-10-19T12:36:56;99351.75;;;13.96;100.00
34237;BME280;20501;45.956;13.632;2023-10-19T12:39:23;99348.66;;;13.99;100.00
34237;BME280;20501;45.956;13.632;2023-10-19T12:42:05;99348.28;;;14.02;100.00
34237;BME280;20501;45.956;13.632;2023-10-19T12:44:33;99341.56;;;13.98;100.00
34237;BME280;20501;45.956;13.632;2023-10-19T12:47:07;99347.63;;;14.00;100.00
34237;BME280;20501;45.956;13.632;2023-10-19T12:49:36;99356.97;;;14.13;100.00
34237;BME280;20501;45.956;13.632;2023-10-19T12:52:02;99353.38;;;14.12;100.00
34237;BME280;20501;45.956;13.632;2023-10-19T12:54:33;99351.97;;;14.16;100.00
34237;BME280;20501;45.956;13.632;2023-10-19T12:57:00;99352.81;;;14.17;100.00
34237;BME280;20501;45.956;13.632;2023-10-19T12:59:25;99346.16;;;14.19;100.00
34237;BME280;20501;45.956;13.632;2023-10-19T13:01:51;99342.78;;;14.17;100.00
34237;BME280;20501;45.956;13.632;2023-10-19T13:04:20;99353.47;;;14.19;100.00
34237;BME280;20501;45.956;13.632;2023-10-19T13:06:49;99345.50;;;14.17;100.00